Time;durP1;ratioP1;P1;durP2;ratioP2;P2;SDS_P1;SDS_P2;PMS_P1;PMS_P2;Temp;Humidity;BMP_temperature;BMP_pressure;BME280_temperature;BME280_humidity;BME280_pressure;Samples;Min_cycle;Max_cycle;Signal;HPM_P1;HPM_P2
2021/10/05 00:01:49;;;;;;;3.85;0.90;;;;;;;14.68;63.06;100749.00;4919630;28;102742;-59
2021/10/05 00:04:15;;;;;;;3.10;0.70;;;;;;;14.68;63.21;100742.75;4919163;28;99303;-62
2021/10/05 00:06:42;;;;;;;4.22;0.95;;;;;;;14.66;63.38;100736.81;4918793;28;128741;-61
2021/10/05 00:09:08;;;;;;;3.50;0.85;;;;;;;14.64;63.18;100741.72;4917467;28;126976;-62
2021/10/05 00:11:34;;;;;;;4.18;0.85;;;;;;;14.64;63.30;100726.25;4919871;28;97932;-59
2021/10/05 00:14:00;;;;;;;3.72;0.70;;;;;;;14.64;63.86;100728.94;4919787;28;111934;-62
2021/10/05 00:16:26;;;;;;;3.85;1.02;;;;;;;14.64;63.58;100723.53;4918359;28;128103;-61
2021/10/05 00:18:52;;;;;;;3.50;0.80;;;;;;;14.63;63.67;100716.50;4918950;28;127239;-61
2021/10/05 00:21:19;;;;;;;2.95;0.77;;;;;;;14.62;63.61;100708.63;4919190;28;107456;-62
2021/10/05 00:23:45;;;;;;;3.67;0.93;;;;;;;14.63;63.57;100705.66;4920210;28;98546;-59
2021/10/05 00:26:11;;;;;;;3.47;0.90;;;;;;;14.63;63.61;100704.84;4917602;28;98822;-59
2021/10/05 00:28:37;;;;;;;3.22;0.93;;;;;;;14.63;63.31;100699.41;4917141;28;127474;-59
2021/10/05 00:31:03;;;;;;;3.83;0.88;;;;;;;14.62;63.62;100697.78;4917176;28;123320;-59
2021/10/05 00:33:29;;;;;;;3.08;0.80;;;;;;;14.61;63.78;100696.97;4920123;28;100256;-59
2021/10/05 00:35:55;;;;;;;4.40;0.73;;;;;;;14.59;64.12;100690.25;4919900;28;105138;-59
2021/10/05 00:38:21;;;;;;;4.47;0.70;;;;;;;14.59;63.64;100685.63;4919429;28;97848;-62
2021/10/05 00:40:47;;;;;;;3.70;0.70;;;;;;;14.59;63.84;100682.91;4919018;28;122731;-59
2021/10/05 00:43:13;;;;;;;4.03;0.77;;;;;;;14.59;63.63;100676.66;4919193;28;98427;-62
2021/10/05 00:45:40;;;;;;;4.15;0.60;;;;;;;14.57;63.84;100676.94;4917400;28;115802;-62
2021/10/05 00:48:06;;;;;;;2.28;0.50;;;;;;;14.57;63.65;100676.13;4919331;28;98402;-62
2021/10/05 00:50:33;;;;;;;3.13;0.70;;;;;;;14.57;63.39;100676.94;4919125;28;112521;-61
2021/10/05 00:52:59;;;;;;;2.85;0.70;;;;;;;14.55;63.52;100671.00;4918731;28;114469;-61
2021/10/05 00:55:25;;;;;;;2.63;0.68;;;;;;;14.56;63.54;100669.91;4920421;28;98657;-62
2021/10/05 00:57:51;;;;;;;2.65;0.75;;;;;;;14.56;63.25;100661.78;4916056;28;117736;-59
2021/10/05 01:00:18;;;;;;;2.85;0.63;;;;;;;14.56;63.52;100669.09;4924051;28;97931;-62
2021/10/05 01:02:45;;;;;;;2.97;0.60;;;;;;;14.55;63.68;100665.59;4921904;28;114933;-59
2021/10/05 01:05:11;;;;;;;4.00;0.60;;;;;;;14.56;63.44;100671.81;4922959;28;98396;-61
2021/10/05 01:07:37;;;;;;;3.75;0.70;;;;;;;14.54;63.27;100669.41;4922500;28;99664;-62
2021/10/05 01:10:04;;;;;;;2.65;0.60;;;;;;;14.55;63.61;100657.47;4921423;28;120982;-59
2021/10/05 01:12:30;;;;;;;3.95;0.88;;;;;;;14.55;63.52;100651.22;4922086;28;112428;-59
2021/10/05 01:14:56;;;;;;;3.08;0.65;;;;;;;14.55;63.78;100643.09;4921880;28;128308;-59
2021/10/05 01:17:22;;;;;;;3.35;0.70;;;;;;;14.56;63.76;100644.69;4920644;28;107459;-59
2021/10/05 01:19:48;;;;;;;5.25;0.77;;;;;;;14.57;63.55;100638.16;4922323;28;99837;-59
2021/10/05 01:22:14;;;;;;;3.45;0.60;;;;;;;14.56;63.63;100645.50;4921481;28;118711;-62
2021/10/05 01:24:41;;;;;;;2.65;0.65;;;;;;;14.57;63.75;100632.75;4922239;28;115386;-62
2021/10/05 01:27:07;;;;;;;3.22;0.50;;;;;;;14.57;63.16;100638.97;4919921;28;105398;-61
2021/10/05 01:29:34;;;;;;;2.90;0.50;;;;;;;14.57;63.53;100636.25;4923505;28;97734;-61
2021/10/05 01:32:02;;;;;;;2.08;0.40;;;;;;;14.58;63.72;100634.34;4922048;28;99236;-59
2021/10/05 01:34:29;;;;;;;3.15;0.55;;;;;;;14.58;63.90;100628.91;4922220;28;98413;-59
2021/10/05 01:36:58;;;;;;;4.13;0.60;;;;;;;14.58;64.06;100621.63;4920031;28;128827;-59
2021/10/05 01:39:29;;;;;;;3.33;0.63;;;;;;;14.58;63.73;100612.66;4921657;28;97812;-61
2021/10/05 01:42:00;;;;;;;2.15;0.65;;;;;;;14.58;64.21;100615.34;4918129;28;98494;-59
2021/10/05 01:44:26;;;;;;;3.13;0.65;;;;;;;14.58;63.76;100618.06;4922796;28;98451;-62
2021/10/05 01:46:52;;;;;;;4.72;0.55;;;;;;;14.57;64.17;100616.47;4921995;28;109723;-63
2021/10/05 01:49:20;;;;;;;2.70;0.47;;;;;;;14.57;64.17;100616.47;4920942;28;114252;-61
2021/10/05 01:51:46;;;;;;;4.22;0.57;;;;;;;14.56;64.78;100612.94;4921927;28;98279;-58
2021/10/05 01:54:12;;;;;;;4.32;0.60;;;;;;;14.56;64.80;100614.84;4921171;28;127903;-59
2021/10/05 01:56:38;;;;;;;3.95;0.90;;;;;;;14.53;65.18;100602.66;4920881;28;98558;-61
2021/10/05 01:59:04;;;;;;;2.78;0.57;;;;;;;14.53;65.23;100594.53;4922075;28;114715;-59
2021/10/05 02:01:31;;;;;;;4.75;0.60;;;;;;;14.52;65.43;100592.13;4921043;28;127920;-58
2021/10/05 02:03:57;;;;;;;4.03;0.65;;;;;;;14.50;66.01;100589.69;4921162;28;104052;-58
2021/10/05 02:06:23;;;;;;;3.38;0.60;;;;;;;14.47;66.11;100591.06;4920561;28;128002;-62
2021/10/05 02:08:50;;;;;;;3.17;0.70;;;;;;;14.45;66.33;100590.53;4920755;28;110253;-62
2021/10/05 02:11:16;;;;;;;4.22;1.00;;;;;;;14.44;66.49;100582.69;4903420;28;98404;-58
2021/10/05 02:13:42;;;;;;;2.60;0.65;;;;;;;14.42;66.69;100577.56;4920247;28;98241;-61
2021/10/05 02:16:09;;;;;;;3.97;0.55;;;;;;;14.41;66.50;100581.34;4921597;28;127784;-62
2021/10/05 02:18:35;;;;;;;4.43;0.80;;;;;;;14.38;66.78;100570.28;4919945;28;121299;-59
2021/10/05 02:21:01;;;;;;;5.07;0.93;;;;;;;14.35;67.11;100555.41;4921078;28;126979;-62
2021/10/05 02:26:22;;;;;;;2.78;0.80;;;;;;;14.29;67.45;100528.66;4900541;28;98182;-62
2021/10/05 02:28:48;;;;;;;6.50;1.05;;;;;;;14.27;67.82;100534.38;4920671;28;115565;-59
2021/10/05 02:31:14;;;;;;;4.35;1.05;;;;;;;14.23;68.27;100533.34;4904131;28;98337;-61
2021/10/05 02:33:40;;;;;;;3.83;0.80;;;;;;;14.20;68.02;100518.44;4912225;28;117983;-59
2021/10/05 02:36:06;;;;;;;4.32;0.85;;;;;;;14.17;68.32;100513.59;4920124;28;125598;-58
2021/10/05 02:38:32;;;;;;;2.75;0.90;;;;;;;14.16;68.18;100522.03;4921182;28;117423;-59
2021/10/05 02:40:58;;;;;;;3.20;1.00;;;;;;;14.13;68.39;100509.84;4918417;28;126106;-59
2021/10/05 02:43:24;;;;;;;5.13;1.15;;;;;;;14.11;68.83;100494.97;4920237;28;128105;-61
2021/10/05 02:45:50;;;;;;;4.10;1.15;;;;;;;14.09;68.73;100494.47;4920443;28;127717;-61
2021/10/05 02:48:17;;;;;;;3.15;1.08;;;;;;;14.08;68.97;100488.25;4919644;28;123887;-59
2021/10/05 02:50:43;;;;;;;4.90;1.17;;;;;;;14.07;69.15;100485.81;4920606;28;126830;-59
2021/10/05 02:53:09;;;;;;;4.32;1.30;;;;;;;14.04;69.00;100487.22;4918353;28;127731;-58
2021/10/05 02:55:35;;;;;;;4.00;1.05;;;;;;;14.04;68.98;100478.28;4920066;28;126299;-59
2021/10/05 02:58:01;;;;;;;3.50;1.20;;;;;;;14.03;69.49;100472.06;4919807;28;121806;-58
2021/10/05 03:00:27;;;;;;;3.47;1.25;;;;;;;14.01;69.57;100474.22;4920844;28;118358;-59
2021/10/05 03:02:53;;;;;;;4.78;1.27;;;;;;;14.00;69.34;100476.13;4919978;28;128001;-61
2021/10/05 03:05:19;;;;;;;3.63;1.30;;;;;;;13.99;69.35;100463.69;4920179;28;127668;-58
2021/10/05 03:07:45;;;;;;;5.40;1.27;;;;;;;13.98;69.90;100458.53;4920072;28;100915;-61
2021/10/05 03:10:11;;;;;;;4.40;1.40;;;;;;;13.95;69.92;100449.13;4918984;28;99097;-61
2021/10/05 03:12:37;;;;;;;4.25;1.27;;;;;;;13.96;70.04;100436.38;4919574;28;128225;-62
2021/10/05 03:15:03;;;;;;;3.25;1.40;;;;;;;13.96;69.77;100442.59;4920219;28;127208;-58
2021/10/05 03:17:29;;;;;;;5.10;1.30;;;;;;;13.95;69.69;100424.72;4918582;28;110549;-61
2021/10/05 03:19:55;;;;;;;3.45;1.52;;;;;;;13.95;70.36;100422.03;4918063;28;126004;-61
2021/10/05 03:22:21;;;;;;;4.40;1.40;;;;;;;13.96;70.13;100415.50;4884998;28;127498;-58
2021/10/05 03:24:47;;;;;;;5.18;1.65;;;;;;;13.96;70.52;100412.78;4919468;28;126136;-58
2021/10/05 03:27:14;;;;;;;3.17;1.35;;;;;;;13.99;70.49;100406.78;4919040;28;123658;-58
2021/10/05 03:29:40;;;;;;;3.17;1.90;;;;;;;14.05;70.64;100398.59;4919910;28;126807;-58
2021/10/05 03:32:07;;;;;;;5.88;1.70;;;;;;;14.11;70.19;100383.84;4917192;28;128903;-58
2021/10/05 03:34:33;;;;;;;4.25;2.05;;;;;;;14.16;70.33;100370.25;4920338;28;106044;-61
2021/10/05 03:36:59;;;;;;;3.15;2.00;;;;;;;14.19;70.07;100366.94;4919399;28;121492;-61
2021/10/05 03:39:25;;;;;;;6.25;2.40;;;;;;;14.21;70.44;100359.31;4919838;28;127295;-58
2021/10/05 03:41:51;;;;;;;3.97;2.10;;;;;;;14.22;70.34;100350.88;4920890;28;98308;-58
2021/10/05 03:44:17;;;;;;;5.65;2.20;;;;;;;14.23;70.32;100351.72;4919846;28;126719;-58
2021/10/05 03:46:43;;;;;;;3.85;2.00;;;;;;;14.24;70.20;100354.13;4919075;28;123786;-61
2021/10/05 03:49:09;;;;;;;4.75;2.00;;;;;;;14.25;70.49;100371.19;4919629;28;127089;-61
2021/10/05 03:51:36;;;;;;;4.88;2.00;;;;;;;14.25;70.13;100363.84;4918439;28;127641;-58
2021/10/05 03:54:02;;;;;;;4.47;2.20;;;;;;;14.27;70.42;100349.22;4920236;28;98069;-61
2021/10/05 03:56:28;;;;;;;5.43;1.98;;;;;;;14.27;70.38;100328.34;4918923;28;122429;-58
2021/10/05 03:58:54;;;;;;;3.50;2.13;;;;;;;14.27;69.90;100332.94;4920614;28;103568;-61
2021/10/05 04:01:20;;;;;;;4.72;2.42;;;;;;;14.27;70.37;100327.53;4919338;28;127769;-58
2021/10/05 04:03:46;;;;;;;5.55;2.85;;;;;;;14.25;70.24;100334.03;4918828;28;127551;-58
2021/10/05 04:06:12;;;;;;;4.57;2.95;;;;;;;14.25;70.84;100327.81;4919956;28;121995;-59
2021/10/05 04:08:38;;;;;;;4.65;2.80;;;;;;;14.23;70.70;100325.41;4919281;28;129087;-59
2021/10/05 04:11:05;;;;;;;5.10;2.67;;;;;;;14.23;70.78;100319.97;4919989;28;98470;-59
2021/10/05 04:13:31;;;;;;;4.70;2.72;;;;;;;14.23;70.51;100313.75;4917872;28;98281;-58
2021/10/05 04:15:58;;;;;;;5.35;2.90;;;;;;;14.22;70.94;100307.50;4920539;28;97935;-61
2021/10/05 04:18:24;;;;;;;5.80;3.05;;;;;;;14.22;70.99;100295.84;4919682;28;98295;-58
2021/10/05 04:20:50;;;;;;;5.65;3.25;;;;;;;14.21;70.56;100305.91;4917939;28;99026;-62
2021/10/05 04:23:16;;;;;;;6.30;3.90;;;;;;;14.20;70.77;100301.59;4919066;28;98559;-61
2021/10/05 04:25:42;;;;;;;6.32;4.05;;;;;;;14.20;70.90;100311.63;4918432;28;112789;-61
2021/10/05 04:28:08;;;;;;;7.20;4.45;;;;;;;14.18;71.30;100300.25;4916761;28;100141;-62
2021/10/05 04:30:34;;;;;;;5.68;4.10;;;;;;;14.16;71.25;100300.56;4920425;28;114946;-61
2021/10/05 04:33:00;;;;;;;8.05;4.50;;;;;;;14.15;70.94;100309.00;4920289;28;98010;-61
2021/10/05 04:35:26;;;;;;;6.88;4.45;;;;;;;14.15;71.09;100304.38;4925269;28;97925;-59
2021/10/05 04:37:52;;;;;;;7.07;4.38;;;;;;;14.16;71.58;100306.00;4924689;28;112272;-59
2021/10/05 04:40:18;;;;;;;7.53;4.50;;;;;;;14.17;71.21;100306.78;4925470;28;126819;-58
2021/10/05 04:42:44;;;;;;;6.80;4.50;;;;;;;14.16;71.20;100292.44;4925374;28;98608;-59
2021/10/05 04:45:11;;;;;;;7.80;4.63;;;;;;;14.18;70.98;100284.81;4925683;28;107928;-58
2021/10/05 04:47:37;;;;;;;7.03;4.50;;;;;;;14.20;71.63;100279.09;4924583;28;127693;-59
2021/10/05 04:50:05;;;;;;;7.53;4.35;;;;;;;14.18;71.22;100271.25;4925233;28;127899;-59
2021/10/05 04:52:31;;;;;;;7.40;4.95;;;;;;;14.21;71.68;100264.44;4925536;28;109533;-61
2021/10/05 04:54:57;;;;;;;7.10;5.13;;;;;;;14.20;71.39;100260.94;4926291;28;121986;-58
2021/10/05 04:57:23;;;;;;;8.63;4.78;;;;;;;14.22;71.38;100252.50;4906482;28;128521;-61
2021/10/05 04:59:49;;;;;;;7.95;4.97;;;;;;;14.22;71.45;100258.72;4923954;28;98756;-59
2021/10/05 05:02:15;;;;;;;7.45;5.00;;;;;;;14.23;72.00;100257.63;4923405;28;126462;-61
2021/10/05 05:04:42;;;;;;;7.32;5.10;;;;;;;14.23;71.75;100256.81;4924845;28;122869;-61
2021/10/05 05:07:08;;;;;;;7.82;5.10;;;;;;;14.22;71.82;100258.72;4924881;28;119060;-61
2021/10/05 05:09:34;;;;;;;7.53;4.97;;;;;;;14.23;71.67;100241.38;4925945;28;108939;-61
2021/10/05 05:12:00;;;;;;;7.95;5.43;;;;;;;14.25;72.02;100235.63;4906447;28;97936;-61
2021/10/05 05:14:26;;;;;;;7.80;5.13;;;;;;;14.25;71.49;100241.06;4923983;28;99887;-61
2021/10/05 05:16:52;;;;;;;6.95;5.50;;;;;;;14.25;71.61;100236.44;4925459;28;98517;-59
2021/10/05 05:19:18;;;;;;;7.85;5.22;;;;;;;14.27;71.94;100227.22;4925775;28;98331;-61
2021/10/05 05:21:44;;;;;;;11.35;5.43;;;;;;;14.27;71.96;100219.88;4923610;28;128461;-58
2021/10/05 05:24:10;;;;;;;7.18;5.60;;;;;;;14.28;71.98;100224.19;4925365;28;98075;-58
2021/10/05 05:26:36;;;;;;;7.15;5.50;;;;;;;14.29;71.84;100216.88;4925188;28;129115;-61
2021/10/05 05:29:02;;;;;;;7.88;5.32;;;;;;;14.30;72.25;100215.75;4924196;28;98904;-61
2021/10/05 05:31:29;;;;;;;7.65;5.28;;;;;;;14.32;72.29;100219.00;4924178;28;98508;-61
2021/10/05 05:33:55;;;;;;;8.10;5.55;;;;;;;14.32;71.98;100213.56;4923772;28;98101;-59
2021/10/05 05:36:21;;;;;;;8.75;5.60;;;;;;;14.34;72.18;100214.84;4924338;28;98541;-59
2021/10/05 05:38:47;;;;;;;8.13;5.43;;;;;;;14.35;71.59;100202.94;4922615;28;128143;-62
2021/10/05 05:41:13;;;;;;;7.15;5.40;;;;;;;14.39;71.83;100195.00;4925882;28;98603;-59
2021/10/05 05:43:39;;;;;;;8.75;5.65;;;;;;;14.39;72.04;100203.94;4925192;28;105094;-61
2021/10/05 05:46:05;;;;;;;7.97;5.60;;;;;;;14.40;71.86;100193.91;4921306;28;126728;-61
2021/10/05 05:48:31;;;;;;;8.10;5.78;;;;;;;14.41;71.98;100196.31;4921139;28;126888;-61
2021/10/05 05:50:57;;;;;;;7.75;5.80;;;;;;;14.43;72.23;100187.88;4903528;28;110784;-59
2021/10/05 05:53:23;;;;;;;9.98;6.75;;;;;;;14.40;72.02;100192.00;4921631;28;122874;-61
2021/10/05 05:55:49;;;;;;;9.50;6.88;;;;;;;14.42;72.00;100188.97;4920507;28;98565;-59
2021/10/05 05:58:16;;;;;;;11.15;6.97;;;;;;;14.41;72.23;100182.75;4919269;28;126737;-59
2021/10/05 06:00:43;;;;;;;10.40;6.88;;;;;;;14.40;72.41;100189.28;4904252;28;98306;-62
2021/10/05 06:03:10;;;;;;;9.65;7.57;;;;;;;14.43;72.59;100174.31;4922133;28;97976;-61
2021/10/05 06:05:36;;;;;;;11.52;7.47;;;;;;;14.45;72.44;100178.31;4922205;28;99028;-62
2021/10/05 06:08:03;;;;;;;9.40;6.97;;;;;;;14.47;72.72;100173.44;4920689;28;118485;-61
2021/10/05 06:10:29;;;;;;;12.70;7.45;;;;;;;14.50;72.39;100166.59;4921443;28;100065;-62
2021/10/05 06:12:55;;;;;;;9.23;7.90;;;;;;;14.54;72.44;100167.66;4921735;28;98257;-61
2021/10/05 06:15:22;;;;;;;11.48;8.50;;;;;;;14.58;72.46;100165.09;4922011;28;98108;-61
2021/10/05 06:17:49;;;;;;;11.40;7.70;;;;;;;14.61;72.54;100162.59;4919814;28;128177;-63
2021/10/05 06:20:24;;;;;;;11.02;7.80;;;;;;;14.66;72.54;100157.09;4919841;28;98004;-61
2021/10/05 06:22:50;;;;;;;11.25;7.88;;;;;;;14.72;72.46;100149.66;4921404;28;97861;-61
2021/10/05 06:25:22;;;;;;;11.90;8.32;;;;;;;14.78;72.11;100144.94;4921460;28;98205;-59
2021/10/05 06:27:48;;;;;;;12.27;9.83;;;;;;;14.80;72.18;100143.50;4919144;28;98048;-61
2021/10/05 06:30:15;;;;;;;13.70;9.20;;;;;;;14.87;72.26;100143.09;4921963;28;97777;-59
2021/10/05 06:32:41;;;;;;;12.05;9.73;;;;;;;14.91;71.98;100144.09;4920913;28;112520;-59
2021/10/05 06:35:08;;;;;;;22.70;19.92;;;;;;;14.93;71.87;100141.88;4901989;28;112296;-61
2021/10/05 06:37:34;;;;;;;13.70;10.88;;;;;;;14.98;72.24;100134.44;4918398;28;98497;-62
2021/10/05 06:40:00;;;;;;;13.52;9.80;;;;;;;15.05;71.94;100127.78;4920422;28;122300;-62
2021/10/05 06:42:28;;;;;;;12.63;9.45;;;;;;;15.07;72.11;100120.94;4920114;28;117587;-61
2021/10/05 06:44:54;;;;;;;13.15;9.70;;;;;;;15.15;71.76;100119.44;4921502;28;98308;-61
2021/10/05 06:47:20;;;;;;;11.80;9.68;;;;;;;15.22;71.62;100107.03;4919960;28;127949;-58
2021/10/05 06:49:46;;;;;;;14.70;10.43;;;;;;;15.31;71.57;100109.03;4920999;28;98925;-59
2021/10/05 06:52:12;;;;;;;14.63;10.30;;;;;;;15.34;71.04;100105.69;4920094;28;122788;-59
2021/10/05 06:54:39;;;;;;;15.75;10.93;;;;;;;15.38;71.26;100101.25;4920283;28;106622;-59
2021/10/05 06:57:05;;;;;;;14.88;10.70;;;;;;;15.40;71.24;100102.53;4918212;28;98646;-59
2021/10/05 06:59:31;;;;;;;14.88;11.52;;;;;;;15.43;71.55;100101.91;4920179;28;119285;-59
2021/10/05 07:01:57;;;;;;;15.18;11.52;;;;;;;15.47;71.52;100110.25;4920109;28;121452;-59
2021/10/05 07:04:23;;;;;;;15.32;10.90;;;;;;;15.47;71.38;100093.97;4919930;28;127240;-59
2021/10/05 07:06:49;;;;;;;16.58;11.63;;;;;;;15.52;71.82;100082.16;4919978;28;98324;-59
2021/10/05 07:09:15;;;;;;;16.58;11.93;;;;;;;15.57;71.42;100077.44;4920573;28;97992;-61
2021/10/05 07:11:41;;;;;;;16.60;12.40;;;;;;;15.63;71.56;100078.09;4919359;28;122425;-61
2021/10/05 07:14:07;;;;;;;18.10;12.50;;;;;;;15.71;71.37;100069.22;4921362;28;98636;-61
2021/10/05 07:16:33;;;;;;;17.35;13.05;;;;;;;15.78;70.75;100061.44;4920375;28;128524;-61
2021/10/05 07:18:59;;;;;;;19.88;13.18;;;;;;;15.82;71.02;100065.13;4917921;28;128251;-61
2021/10/05 07:21:25;;;;;;;18.35;13.80;;;;;;;15.87;71.03;100069.63;4905164;28;123414;-59
2021/10/05 07:23:51;;;;;;;18.13;13.65;;;;;;;15.98;70.45;100064.72;4902924;28;97971;-59
2021/10/05 07:26:18;;;;;;;19.10;13.77;;;;;;;16.10;70.28;100062.22;4919575;28;128034;-61
2021/10/05 07:28:44;;;;;;;20.17;14.43;;;;;;;16.08;70.50;100056.31;4918377;28;109995;-61
2021/10/05 07:31:11;;;;;;;17.48;14.02;;;;;;;16.08;70.52;100062.53;4920331;28;98085;-59
2021/10/05 07:33:37;;;;;;;19.52;14.93;;;;;;;16.11;70.59;100072.81;4919969;28;98593;-59
2021/10/05 07:36:03;;;;;;;22.45;15.13;;;;;;;16.17;70.40;100065.28;4918576;28;127203;-61
2021/10/05 07:38:29;;;;;;;21.63;15.95;;;;;;;16.16;70.02;100082.72;4920139;28;103639;-59
2021/10/05 07:40:55;;;;;;;22.67;15.48;;;;;;;16.13;70.47;100072.47;4919793;28;123068;-61
2021/10/05 07:43:21;;;;;;;20.25;15.93;;;;;;;16.23;70.39;100069.50;4919706;28;98697;-59
2021/10/05 07:45:48;;;;;;;18.67;15.27;;;;;;;16.31;70.33;100066.00;4918788;28;128082;-61
2021/10/05 07:48:14;;;;;;;24.13;17.60;;;;;;;16.33;70.04;100069.19;4919600;28;98370;-59
2021/10/05 07:50:40;;;;;;;25.65;18.20;;;;;;;16.24;69.95;100062.94;4920724;28;97812;-59
2021/10/05 07:53:06;;;;;;;21.88;17.33;;;;;;;16.26;70.29;100059.88;4919933;28;103035;-59
2021/10/05 07:55:32;;;;;;;22.13;17.27;;;;;;;16.23;70.66;100057.78;4919640;28;128705;-61
2021/10/05 07:57:59;;;;;;;24.02;17.65;;;;;;;16.17;70.62;100055.22;4917648;28;98106;-60
2021/10/05 08:00:25;;;;;;;26.45;18.63;;;;;;;16.14;70.47;100047.69;4918438;28;116439;-62
2021/10/05 08:02:51;;;;;;;26.35;18.27;;;;;;;16.10;70.88;100040.47;4919500;28;98189;-59
2021/10/05 08:05:19;;;;;;;24.45;17.50;;;;;;;16.05;70.89;100035.97;4919262;28;120622;-59
2021/10/05 08:07:46;;;;;;;25.67;18.70;;;;;;;16.02;70.87;100033.09;4918862;28;98763;-59
2021/10/05 08:10:12;;;;;;;22.42;17.77;;;;;;;15.98;71.21;100027.47;4918822;28;98359;-62
2021/10/05 08:12:40;;;;;;;26.77;19.05;;;;;;;15.98;71.27;100030.19;4918286;28;116171;-59
2021/10/05 08:15:07;;;;;;;23.98;18.17;;;;;;;15.99;71.36;100033.72;4920291;28;98980;-59
2021/10/05 08:17:33;;;;;;;24.35;18.65;;;;;;;15.99;71.04;100029.06;4919256;28;113779;-61
2021/10/05 08:19:59;;;;;;;25.45;19.00;;;;;;;16.04;71.14;100025.44;4919937;28;98362;-59
2021/10/05 08:22:25;;;;;;;23.73;18.15;;;;;;;16.06;71.22;100029.41;4919002;28;99143;-61
2021/10/05 08:24:51;;;;;;;25.23;18.17;;;;;;;16.08;71.36;100024.50;4919814;28;128314;-59
2021/10/05 08:27:17;;;;;;;24.75;18.42;;;;;;;16.15;71.21;100021.28;4918322;28;126774;-61
2021/10/05 08:29:45;;;;;;;25.67;18.52;;;;;;;16.25;70.79;100012.06;4901982;28;97865;-59
2021/10/05 08:32:11;;;;;;;25.25;18.25;;;;;;;16.37;70.52;99999.44;4900912;28;98324;-61
2021/10/05 08:34:38;;;;;;;24.05;18.67;;;;;;;16.43;70.14;100005.56;4919617;28;98415;-59
2021/10/05 08:37:04;;;;;;;25.85;18.75;;;;;;;16.47;70.45;99998.34;4918163;28;127297;-62
2021/10/05 08:39:30;;;;;;;28.17;19.25;;;;;;;16.51;70.37;99996.59;4918956;28;111285;-62
2021/10/05 08:41:56;;;;;;;27.98;19.75;;;;;;;16.55;70.13;100003.00;4916819;28;128183;-59
2021/10/05 08:44:24;;;;;;;25.98;18.40;;;;;;;16.56;70.08;100001.88;4919537;28;114613;-59
2021/10/05 08:46:50;;;;;;;25.70;19.50;;;;;;;16.54;69.81;99998.66;4919183;28;98106;-61
2021/10/05 08:49:17;;;;;;;27.73;20.17;;;;;;;16.52;69.87;99998.19;4916807;28;105852;-59
2021/10/05 08:51:43;;;;;;;29.33;21.30;;;;;;;16.53;70.09;99999.00;4885007;28;119423;-61
2021/10/05 08:54:10;;;;;;;26.27;19.17;;;;;;;16.67;69.71;99992.28;4919070;28;98141;-59
2021/10/05 08:56:37;;;;;;;26.17;19.27;;;;;;;16.85;69.37;99989.59;4900824;28;98414;-59
2021/10/05 08:59:03;;;;;;;26.92;19.05;;;;;;;17.01;68.92;99982.53;4917403;28;106144;-59
2021/10/05 09:01:33;;;;;;;25.05;18.73;;;;;;;17.19;68.62;99975.16;4917995;28;127222;-59
2021/10/05 09:04:00;;;;;;;25.48;18.52;;;;;;;17.36;68.48;99974.31;4919835;28;97927;-59
2021/10/05 09:06:26;;;;;;;24.77;19.13;;;;;;;17.43;68.08;99971.91;4916872;28;97887;-59
2021/10/05 09:08:55;;;;;;;23.60;18.30;;;;;;;17.43;68.54;99988.25;4918145;28;122189;-59
2021/10/05 09:11:26;;;;;;;25.40;18.70;;;;;;;17.39;68.55;99982.66;4919600;28;97946;-59
2021/10/05 09:13:54;;;;;;;24.55;18.83;;;;;;;17.43;68.56;99980.06;4918874;28;97743;-61
2021/10/05 09:16:28;;;;;;;25.58;19.45;;;;;;;17.51;67.94;99973.00;4919147;28;97908;-61
2021/10/05 09:19:10;;;;;;;25.70;18.58;;;;;;;17.91;67.28;99959.88;4918980;28;97985;-59
2021/10/05 09:21:41;;;;;;;;;;;;;;;18.20;66.49;99959.09;4922959;28;98726;-59
2021/10/05 09:24:15;;;;;;;25.88;17.98;;;;;;;18.24;66.12;99945.59;4920316;28;106620;-59
2021/10/05 09:26:54;;;;;;;23.88;17.73;;;;;;;18.34;66.22;99937.81;4919992;28;98077;-59
2021/10/05 09:29:34;;;;;;;24.13;18.02;;;;;;;18.47;66.10;99935.97;4904977;28;98093;-59
2021/10/05 09:32:04;;;;;;;21.13;17.17;;;;;;;18.58;65.54;99939.88;4922099;28;99107;-59
2021/10/05 09:34:50;;;;;;;21.35;17.70;;;;;;;18.57;65.53;99935.56;4922752;28;98144;-59
2021/10/05 09:37:22;;;;;;;20.02;16.35;;;;;;;18.55;65.61;99929.66;4921731;28;98121;-59
2021/10/05 09:40:03;;;;;;;;;;;;;;;18.50;65.80;99932.56;4923323;28;98086;-59
2021/10/05 09:42:32;;;;;;;19.98;16.13;;;;;;;18.37;65.81;99934.41;4922252;28;98297;-59
2021/10/05 09:45:12;;;;;;;20.05;16.45;;;;;;;18.30;66.08;99934.16;4921621;28;119384;-59
2021/10/05 09:47:43;;;;;;;19.80;15.88;;;;;;;18.25;65.57;99931.63;4922492;28;99669;-62
2021/10/05 09:50:18;;;;;;;19.83;16.63;;;;;;;18.19;65.73;99932.94;4922214;28;97998;-62
2021/10/05 09:52:48;;;;;;;21.60;16.27;;;;;;;18.19;65.79;99932.94;4921237;28;98812;-61
2021/10/05 09:55:18;;;;;;;21.58;16.20;;;;;;;18.26;65.58;99924.22;4921914;28;98869;-59
2021/10/05 09:57:44;;;;;;;19.00;15.57;;;;;;;18.27;65.49;99921.16;4920826;28;107697;-62
2021/10/05 10:00:11;;;;;;;18.52;15.43;;;;;;;18.29;65.70;99920.84;4920179;28;97910;-59
2021/10/05 10:02:38;;;;;;;19.98;15.18;;;;;;;18.30;65.69;99922.44;4903349;28;98243;-61
2021/10/05 10:05:13;;;;;;;18.65;15.23;;;;;;;18.21;65.67;99921.72;4921483;28;99135;-59
2021/10/05 10:07:43;;;;;;;18.65;15.05;;;;;;;18.20;65.85;99920.91;4920750;28;97796;-59
2021/10/05 10:10:12;;;;;;;19.50;15.48;;;;;;;18.19;65.55;99923.94;4922356;28;97980;-62
2021/10/05 10:12:39;;;;;;;18.73;14.82;;;;;;;18.15;65.66;99940.19;4920789;28;98741;-61
2021/10/05 10:15:09;;;;;;;18.73;14.65;;;;;;;18.11;65.70;99931.06;4903886;28;105487;-61
2021/10/05 10:17:36;;;;;;;16.23;14.23;;;;;;;18.13;65.77;99924.16;4921276;28;97843;-62
2021/10/05 10:20:03;;;;;;;17.38;14.57;;;;;;;18.13;65.51;99924.16;4921935;28;97867;-59
2021/10/05 10:22:30;;;;;;;17.20;14.50;;;;;;;18.13;65.62;99917.91;4920672;28;117888;-59
2021/10/05 10:24:59;;;;;;;18.15;14.55;;;;;;;18.13;65.54;99920.63;4917975;28;121491;-61
2021/10/05 10:27:25;;;;;;;18.95;14.35;;;;;;;18.10;65.60;99919.34;4921438;28;97970;-63
2021/10/05 10:29:54;;;;;;;17.25;14.27;;;;;;;18.06;65.86;99918.41;4922323;28;98064;-62
2021/10/05 10:32:24;;;;;;;17.25;14.07;;;;;;;18.03;65.88;99921.00;4920243;28;98179;-62
2021/10/05 10:35:03;;;;;;;21.48;14.25;;;;;;;18.05;65.77;99913.31;4921865;28;98393;-59
2021/10/05 10:37:39;;;;;;;15.52;13.88;;;;;;;18.12;65.87;99910.88;4922000;28;98322;-59
2021/10/05 10:40:06;;;;;;;17.42;13.93;;;;;;;18.19;65.81;99916.56;4904857;28;97877;-59
2021/10/05 10:42:32;;;;;;;15.88;12.93;;;;;;;18.30;65.62;99917.78;4919509;28;119993;-61
2021/10/05 10:44:58;;;;;;;16.25;13.55;;;;;;;18.42;65.66;99910.78;4921646;28;98524;-61
2021/10/05 10:47:24;;;;;;;17.42;13.43;;;;;;;18.53;64.97;99912.00;4918200;28;98145;-61
2021/10/05 10:50:00;;;;;;;16.15;12.77;;;;;;;18.71;64.73;99902.56;4919092;28;97910;-61
2021/10/05 10:52:33;;;;;;;15.70;12.60;;;;;;;18.88;64.61;99905.13;4919244;28;97935;-59
2021/10/05 10:54:59;;;;;;;14.75;12.48;;;;;;;18.97;63.91;99906.97;4921164;28;98861;-61
2021/10/05 10:57:35;;;;;;;13.15;11.75;;;;;;;18.97;63.95;99905.03;4917967;28;115991;-59
2021/10/05 11:00:18;;;;;;;13.70;11.85;;;;;;;18.97;64.07;99912.44;4921510;28;98121;-61
2021/10/05 11:02:52;;;;;;;14.65;11.23;;;;;;;18.93;63.92;99900.59;4920619;28;98144;-61
2021/10/05 11:05:22;;;;;;;13.15;11.40;;;;;;;18.93;63.86;99895.13;4921396;28;98396;-59
2021/10/05 11:07:55;;;;;;;12.80;11.07;;;;;;;18.93;63.66;99895.91;4919948;28;97797;-59
2021/10/05 11:10:34;;;;;;;12.65;11.32;;;;;;;18.99;63.79;99891.06;4921331;28;97816;-59
2021/10/05 11:13:06;;;;;;;13.88;10.95;;;;;;;18.96;63.69;99897.97;4918525;28;98151;-63
2021/10/05 11:15:45;;;;;;;11.88;10.38;;;;;;;18.97;63.56;99885.13;4920933;28;98708;-61
2021/10/05 11:18:18;;;;;;;12.45;10.93;;;;;;;18.99;63.10;99888.31;4920446;28;98785;-59
2021/10/05 11:20:53;;;;;;;13.35;11.20;;;;;;;18.98;63.32;99884.81;4920856;28;97937;-61